Bard, California
Current Conditions -  °F | °C
As of 9:57 PM on Wednesday 22 Oct 2014 (Local Time) from KNYL Reporting Station
Few Clouds Few Clouds  
Wind Chill: 82°   Ceiling: Unl
Heat Index: 82°   Visibility: 10mi
Dew Point: 49°   Wind: 0mph
Humidity: 31%   Direction: NA
Pressure: 29.9"   Gusts: NA
Location:  32.79°N, 114.56°W
Report Text: KNYL 230457Z 00000KT 10SM FEW300 28/09 A2990 RMK AO2 SLP122 T02780094
Loading
Personal Weather Stations






























Interactive Weather Map
Tropical Storm Tracking
New forecast layout! Learn more

10-Day Weather Forecast

Advertisements
Track Severe Weather on mobile